Airfield :
LOGIN :

Register | Disclaimer

   EN    FR    IT 

 










Legend :    VFR   Marginal VFR   IFR   Intensive IFR   Very Intensive IFR
Visi :
Ceiling :
>= 8 km
>= 3000ft
5 to 8 km
1000 to 3000 ft
1500m to 5 km
500 to 1000 ft
800 to 1500m
200 to 500 ft
< 800m
< 200 ft
Symbols :   Thunderstorms  Fog  Heavy snow  Heavy precipitations  Wind > 20 kt
SIGMETs :     Misc.  Thunderstorms  Icing  Turbulence  Mountain Waves  Volcanic Ashes






- Airport Elevation : 39 ft
- IATA code : ANR


EBAW - Anvers / Antwerpen Deurne

CURRENT METAR :
  • 241450Z 23003KT 200V260 4800 BR BKN003 02/01 Q1023 TEMPO SCT004 BKN006

EXPIRED METARs :
  • 241420Z 19003KT 150V220 4800 BR BKN003 02/01 Q1023 TEMPO SCT004 BKN006
  • 241350Z VRB01KT 5000 BR BKN004 02/01 Q1023 TEMPO SCT004 BKN006
  • 241320Z VRB02KT 5000 BR BKN004 02/01 Q1023 TEMPO SCT004 BKN006
  • 241250Z 25003KT 190V310 4000 BR BKN004 02/01 Q1024 NOSIG
  • 241220Z 18003KT 150V220 4800 BR BKN004 02/01 Q1024 NOSIG

TAF TAF EBAW
Valid from the 24 at 15:00 until the 25 at 00:00 UTC


241400Z 2415/2424 23003KT 4500 BR BKN004
PROB30
TEMPO 2415/2418 6000 NSW SCT004 BKN008
BECMG 2418/2420 1400 BCFG
PROB40 2422/2424 0400 FZFG FG BKN001



MET'MAP, your aeronautical weather chart ! - Copyright ORBIFLY December 2007 - Disclaimer

ORBIFLY MET'MAP TEAM :

Programming & Development : Alexandra Zaïnal
Concept & original design : Baudouin d'Aumeries
Assistance for programming : Marc-Olivier Méhu
Technical & hardware support : Manuel Goepfert

Contact : metmap@orbifly.com




SOURCES & CREDITS :

   NOAA